Terminal Aerodrome Forecast
Issued by NWS

Home | Current Version | Previous Version | Text Only | Print | Product List | Glossary On
Versions: 1 2 3 4 5 6 7 8 9 10 11 12 13 14 15 16 17 18 19
357
FTUS44 KLZK 280615 AAA
TAFBPK
TAF AMD
KBPK 280615Z 2806/0106 15006KT P6SM VCSH OVC017 WS020/20040KT
     FM281200 18011KT P6SM VCSH BKN015 OVC040 WS020/20040KT
     FM281700 20010G20KT P6SM VCTS BKN025CB OVC050
     FM281900 20010G18KT P6SM -RA VCTS SCT020CB OVC050 PROB30
      2820/0102 4SM TSRA BKN025CB OVC040=

USA.gov is the U.S. government's official web portal to all federal, state and local government web resources and services.